QTR42X EGLL-OTHH
Flight info
| Callsign | QTR42X |
|---|---|
| Flight time | N/A |
| Altitude | 35000 |
| Route | DET L6 DVR UL9 KONAN UL607 KOK DCT SISGA DCT RITAX DCT BANUX DCT BABEG DCT KUMOM DCT NIPEL DCT ABISO DCT ZARVE DCT KOTOR DCT TUPUS DCT MAVAR DCT BITLA UN132 KEA UL607 PAXIS Y707 OBRAN L321 RALSU/N0485F370 L321 REXUM M872 BDB Y214 RAPMA/N0520F290 Y214 ASPUS Y432 LADBO T142 LAEEB |
| Aircraft | B77W/H-SDE1E2E3FGHIJ2J3J4J5M1RWXY/LB1D1 |
Departure
| Time | 2026-05-06 11:52 |
|---|---|
| Airport | London Heathrow Airport (EGLL) |
Arrival
| Time | N/A |
|---|---|
| Airport | Hamad International Airport (OTHH) |
| Time | Latitude | Longitude | Altitude | Speed | Heading |
|---|---|---|---|---|---|
| 2026-05-06 11:15 | 51.46074 | -0.44811 | 91 ft | 0 kts | 131° |
| 2026-05-06 11:38 | 51.46077 | -0.44816 | 95 ft | 3 kts | 131° |
| 2026-05-06 11:39 | 51.46095 | -0.44848 | 94 ft | 4 kts | 132° |
| 2026-05-06 11:39 | 51.46111 | -0.44875 | 90 ft | 4 kts | 125° |
| 2026-05-06 11:39 | 51.46120 | -0.44906 | 92 ft | 4 kts | 92° |
| 2026-05-06 11:39 | 51.46117 | -0.44933 | 93 ft | 4 kts | 50° |
| 2026-05-06 11:40 | 51.46092 | -0.44970 | 91 ft | 4 kts | 40° |
| 2026-05-06 11:40 | 51.46086 | -0.44978 | 93 ft | 1 kts | 41° |
| 2026-05-06 11:40 | 51.46084 | -0.44981 | 93 ft | 0 kts | 41° |
| 2026-05-06 11:44 | 51.46213 | -0.44804 | 96 ft | 22 kts | 43° |
| 2026-05-06 11:44 | 51.46292 | -0.44733 | 93 ft | 10 kts | 350° |
| 2026-05-06 11:44 | 51.46317 | -0.44814 | 95 ft | 12 kts | 266° |
| 2026-05-06 11:44 | 51.46315 | -0.45045 | 95 ft | 23 kts | 271° |
| 2026-05-06 11:45 | 51.46317 | -0.45320 | 94 ft | 31 kts | 268° |
| 2026-05-06 11:45 | 51.46315 | -0.45644 | 97 ft | 29 kts | 273° |
| 2026-05-06 11:45 | 51.46320 | -0.45968 | 96 ft | 29 kts | 269° |
| 2026-05-06 11:45 | 51.46319 | -0.46293 | 94 ft | 29 kts | 271° |
| 2026-05-06 11:46 | 51.46319 | -0.46608 | 94 ft | 28 kts | 271° |
| 2026-05-06 11:46 | 51.46316 | -0.46914 | 95 ft | 28 kts | 265° |
| 2026-05-06 11:46 | 51.46319 | -0.47221 | 95 ft | 27 kts | 269° |
| 2026-05-06 11:46 | 51.46335 | -0.47526 | 96 ft | 28 kts | 271° |
| 2026-05-06 11:47 | 51.46269 | -0.47808 | 97 ft | 28 kts | 245° |
| 2026-05-06 11:47 | 51.46251 | -0.48108 | 93 ft | 28 kts | 266° |
| 2026-05-06 11:47 | 51.46249 | -0.48414 | 89 ft | 27 kts | 270° |
| 2026-05-06 11:47 | 51.46270 | -0.48646 | 93 ft | 10 kts | 296° |
| 2026-05-06 11:48 | 51.46286 | -0.48682 | 95 ft | 0 kts | 311° |
| 2026-05-06 11:49 | 51.46307 | -0.48718 | 93 ft | 11 kts | 313° |
| 2026-05-06 11:50 | 51.46374 | -0.48757 | 96 ft | 10 kts | 358° |
| 2026-05-06 11:50 | 51.46444 | -0.48732 | 97 ft | 11 kts | 31° |
| 2026-05-06 11:50 | 51.46477 | -0.48615 | 97 ft | 12 kts | 89° |
| 2026-05-06 11:50 | 51.46477 | -0.48605 | 96 ft | 0 kts | 87° |
| 2026-05-06 11:51 | 51.46477 | -0.48600 | 96 ft | 1 kts | 88° |
| 2026-05-06 11:51 | 51.46477 | -0.48578 | 95 ft | 9 kts | 89° |
| 2026-05-06 11:51 | 51.46481 | -0.48291 | 93 ft | 48 kts | 91° |
| 2026-05-06 11:51 | 51.46485 | -0.47347 | 94 ft | 119 kts | 90° |
| 2026-05-06 11:52 | 51.46495 | -0.45716 | 92 ft | 173 kts | 89° |
| 2026-05-06 11:52 | 51.46501 | -0.43638 | 485 ft | 190 kts | 86° |
| 2026-05-06 11:52 | 51.46543 | -0.41517 | 1269 ft | 191 kts | 85° |
| 2026-05-06 11:52 | 51.46194 | -0.39400 | 1786 ft | 206 kts | 119° |
| 2026-05-06 11:53 | 51.45306 | -0.37601 | 2363 ft | 209 kts | 132° |
| 2026-05-06 11:53 | 51.44223 | -0.35953 | 2736 ft | 219 kts | 126° |
| 2026-05-06 11:53 | 51.43512 | -0.33769 | 3185 ft | 224 kts | 103° |
| 2026-05-06 11:53 | 51.43141 | -0.31262 | 3702 ft | 234 kts | 97° |
| 2026-05-06 11:54 | 51.42830 | -0.28677 | 4180 ft | 247 kts | 96° |
| 2026-05-06 11:54 | 51.42586 | -0.25859 | 4637 ft | 261 kts | 94° |
| 2026-05-06 11:54 | 51.42233 | -0.22986 | 5403 ft | 267 kts | 101° |
| 2026-05-06 11:54 | 51.41762 | -0.20072 | 5954 ft | 272 kts | 101° |
| 2026-05-06 11:55 | 51.41306 | -0.17100 | 6568 ft | 277 kts | 100° |
| 2026-05-06 11:55 | 51.40858 | -0.14082 | 7370 ft | 279 kts | 100° |
| 2026-05-06 11:55 | 51.40419 | -0.11037 | 8093 ft | 284 kts | 100° |
| 2026-05-06 11:55 | 51.39981 | -0.07933 | 8815 ft | 288 kts | 100° |
| 2026-05-06 11:56 | 51.39542 | -0.04784 | 9573 ft | 290 kts | 99° |